createdAt,value
2018-06-20T00:00:16.557Z,15.44
2018-06-20T00:01:45.240Z,15.40
2018-06-20T00:03:11.434Z,15.36
2018-06-20T00:04:39.936Z,15.31
2018-06-20T00:06:07.363Z,15.27
2018-06-20T00:07:33.725Z,15.20
2018-06-20T00:09:02.139Z,15.15
2018-06-20T00:10:28.457Z,15.09
2018-06-20T00:11:56.862Z,15.03
2018-06-20T00:13:23.264Z,15.00
2018-06-20T00:14:50.841Z,14.97
2018-06-20T00:16:18.063Z,14.96
2018-06-20T00:17:45.497Z,14.95
2018-06-20T00:19:14.155Z,14.95
2018-06-20T00:20:41.636Z,14.96
2018-06-20T00:22:08.988Z,14.97
2018-06-20T00:23:35.347Z,14.99
2018-06-20T00:25:02.635Z,15.00
2018-06-20T00:26:31.154Z,15.00
2018-06-20T00:27:58.883Z,15.00
2018-06-20T00:29:25.164Z,15.00
2018-06-20T00:30:52.528Z,14.99
2018-06-20T00:32:20.087Z,14.98
2018-06-20T00:33:47.375Z,14.97
2018-06-20T00:35:14.162Z,14.98
2018-06-20T00:36:41.810Z,14.98
2018-06-20T00:38:10.173Z,14.98
2018-06-20T00:39:37.491Z,14.98
2018-06-20T00:41:04.612Z,14.98
2018-06-20T00:42:31.020Z,14.96
2018-06-20T00:43:59.525Z,14.95
2018-06-20T00:45:25.846Z,14.94
2018-06-20T00:46:53.114Z,14.93
2018-06-20T00:48:21.717Z,14.91
2018-06-20T00:49:47.885Z,14.91
2018-06-20T00:51:16.377Z,14.89
2018-06-20T00:52:43.708Z,14.87
2018-06-20T00:54:10.026Z,14.85
2018-06-20T00:55:38.621Z,14.83
2018-06-20T00:57:06.102Z,14.82
2018-06-20T00:58:32.266Z,14.82
2018-06-20T01:00:00.656Z,14.81
2018-06-20T01:01:27.986Z,14.81
2018-06-20T01:02:54.413Z,14.80
2018-06-20T01:04:21.928Z,14.80
2018-06-20T01:05:50.466Z,14.78
2018-06-20T01:07:18.071Z,14.72
2018-06-20T01:08:45.565Z,14.67
2018-06-20T01:10:11.812Z,14.62
2018-06-20T01:11:39.298Z,14.59
2018-06-20T01:13:06.709Z,14.53
2018-06-20T01:14:34.039Z,14.45
2018-06-20T01:16:02.399Z,14.39
2018-06-20T01:17:29.697Z,14.34
2018-06-20T01:18:56.196Z,14.30
2018-06-20T01:20:24.548Z,14.24
2018-06-20T01:21:50.834Z,14.18
2018-06-20T01:23:18.233Z,14.13
2018-06-20T01:24:45.651Z,14.11
2018-06-20T01:26:14.021Z,14.07
2018-06-20T01:27:40.456Z,14.00
2018-06-20T01:29:08.627Z,13.90
2018-06-20T01:30:34.647Z,13.81
2018-06-20T01:32:03.104Z,13.74
2018-06-20T01:33:29.218Z,13.68
2018-06-20T01:34:56.529Z,13.65
2018-06-20T01:36:23.916Z,13.66
2018-06-20T01:37:51.375Z,13.70
2018-06-20T01:39:18.930Z,13.74
2018-06-20T01:40:47.294Z,13.77
2018-06-20T01:42:14.721Z,13.81
2018-06-20T01:43:42.184Z,13.83
2018-06-20T01:45:08.371Z,13.86
2018-06-20T01:46:35.569Z,13.90
2018-06-20T01:48:04.099Z,13.93
2018-06-20T01:49:31.372Z,13.96
2018-06-20T01:50:58.852Z,13.99
2018-06-20T01:52:25.197Z,14.01
2018-06-20T01:53:53.333Z,14.04
2018-06-20T01:55:20.547Z,14.07
2018-06-20T01:56:47.870Z,14.08
2018-06-20T01:58:14.232Z,14.08
2018-06-20T01:59:42.552Z,14.09
2018-06-20T02:01:08.846Z,14.10
2018-06-20T02:02:37.087Z,14.12
2018-06-20T02:04:03.373Z,14.13
2018-06-20T02:05:30.801Z,14.14
2018-06-20T02:06:58.248Z,14.16
2018-06-20T02:08:25.598Z,14.17
2018-06-20T02:09:53.904Z,14.18
2018-06-20T02:11:20.205Z,14.17
2018-06-20T02:12:47.594Z,14.15
2018-06-20T02:14:15.018Z,14.11
2018-06-20T02:15:42.654Z,14.06
2018-06-20T02:17:11.017Z,14.02
2018-06-20T02:18:37.111Z,13.97
2018-06-20T02:20:05.549Z,13.92
2018-06-20T02:21:31.983Z,13.89
2018-06-20T02:22:59.201Z,13.89
2018-06-20T02:24:27.809Z,13.87
2018-06-20T02:25:54.127Z,13.82
2018-06-20T02:27:21.554Z,13.72
2018-06-20T02:28:48.992Z,13.57
2018-06-20T02:30:17.496Z,13.43
2018-06-20T02:31:44.932Z,13.34
2018-06-20T02:33:11.103Z,13.27
2018-06-20T02:34:39.506Z,13.21
2018-06-20T02:36:06.753Z,13.19
2018-06-20T02:37:34.136Z,13.17
2018-06-20T02:39:01.515Z,13.15
2018-06-20T02:40:27.908Z,13.12
2018-06-20T02:41:56.469Z,13.09
2018-06-20T02:43:23.990Z,13.06
2018-06-20T02:44:51.427Z,13.04
2018-06-20T02:46:18.973Z,13.02
2018-06-20T02:47:45.400Z,13.01
2018-06-20T02:49:13.944Z,12.98
2018-06-20T02:50:40.428Z,12.93
2018-06-20T02:52:07.735Z,12.87
2018-06-20T02:53:35.265Z,12.83
2018-06-20T02:55:03.577Z,12.81
2018-06-20T02:56:29.869Z,12.82
2018-06-20T02:57:57.080Z,12.85
2018-06-20T02:59:25.618Z,12.87
2018-06-20T03:00:51.917Z,12.89
2018-06-20T03:02:19.291Z,12.88
2018-06-20T03:03:46.763Z,12.85
2018-06-20T03:05:14.876Z,12.78
2018-06-20T03:06:41.148Z,12.73
2018-06-20T03:08:08.383Z,12.69
2018-06-20T03:09:36.695Z,12.67
2018-06-20T03:11:02.954Z,12.68
2018-06-20T03:12:30.301Z,12.68
2018-06-20T03:13:58.729Z,12.69
2018-06-20T03:15:25.008Z,12.70
2018-06-20T03:16:52.538Z,12.70
2018-06-20T03:18:20.026Z,12.69
2018-06-20T03:19:48.672Z,12.68
2018-06-20T03:21:15.857Z,12.65
2018-06-20T03:22:42.216Z,12.65
2018-06-20T03:24:09.668Z,12.66
2018-06-20T03:25:38.164Z,12.67
2018-06-20T03:27:04.544Z,12.69
2018-06-20T03:28:32.892Z,12.72
2018-06-20T03:29:59.385Z,12.78
2018-06-20T03:31:27.891Z,12.86
2018-06-20T03:32:55.251Z,12.95
2018-06-20T03:34:22.859Z,13.03
2018-06-20T03:35:50.197Z,13.12
2018-06-20T03:37:17.523Z,13.19
2018-06-20T03:38:45.142Z,13.26
2018-06-20T03:40:12.290Z,13.29
2018-06-20T03:41:38.665Z,13.30
2018-06-20T03:43:06.008Z,13.32
2018-06-20T03:44:34.358Z,13.35
2018-06-20T03:46:00.858Z,13.39
2018-06-20T03:47:28.276Z,13.46
2018-06-20T03:48:55.820Z,13.56
2018-06-20T03:50:24.444Z,13.72
2018-06-20T03:51:51.888Z,14.02
2018-06-20T03:53:18.138Z,14.42
2018-06-20T03:54:46.752Z,14.89
2018-06-20T03:56:14.161Z,15.39
2018-06-20T03:57:40.922Z,15.88
2018-06-20T03:59:08.420Z,16.34
2018-06-20T04:00:37.012Z,16.74
2018-06-20T04:02:04.532Z,17.08
2018-06-20T04:03:30.891Z,17.31
2018-06-20T04:04:58.642Z,17.38
2018-06-20T04:06:25.975Z,17.36
2018-06-20T04:07:54.459Z,17.26
2018-06-20T04:09:20.760Z,17.12
2018-06-20T04:10:49.426Z,16.98
2018-06-20T04:12:15.890Z,16.83
2018-06-20T04:13:43.323Z,16.69
2018-06-20T04:15:11.926Z,16.57
2018-06-20T04:16:38.169Z,16.47
2018-06-20T04:18:05.658Z,16.38
2018-06-20T04:19:33.107Z,16.29
2018-06-20T04:21:01.609Z,16.20
2018-06-20T04:22:28.921Z,16.11
2018-06-20T04:23:56.318Z,16.03
2018-06-20T04:25:23.740Z,15.96
2018-06-20T04:26:51.269Z,15.89
2018-06-20T04:28:18.668Z,15.82
2018-06-20T04:29:46.250Z,15.77
2018-06-20T04:31:13.841Z,15.73
2018-06-20T04:32:41.149Z,15.70
2018-06-20T04:34:08.425Z,15.66
2018-06-20T04:35:34.232Z,15.62
2018-06-20T04:37:01.484Z,15.60
2018-06-20T04:38:28.841Z,15.59
2018-06-20T04:39:57.265Z,15.59
2018-06-20T04:41:23.520Z,15.58
2018-06-20T04:42:50.985Z,15.58
2018-06-20T04:44:18.247Z,15.57
2018-06-20T04:45:45.396Z,15.58
2018-06-20T04:47:12.926Z,15.58
2018-06-20T04:48:40.436Z,15.59
2018-06-20T04:50:07.915Z,15.61
2018-06-20T04:51:35.228Z,15.63
2018-06-20T04:53:03.724Z,15.64
2018-06-20T04:54:31.208Z,15.67
2018-06-20T04:55:58.509Z,15.68
2018-06-20T04:57:26.035Z,15.71
2018-06-20T04:58:52.398Z,15.72
2018-06-20T05:00:19.818Z,15.75
2018-06-20T05:01:47.278Z,15.79
2018-06-20T05:03:14.623Z,15.82
2018-06-20T05:04:42.014Z,15.85
2018-06-20T05:06:09.440Z,15.90
2018-06-20T05:07:36.807Z,15.96
2018-06-20T05:09:05.428Z,16.02
2018-06-20T05:10:31.911Z,16.07
2018-06-20T05:11:59.340Z,16.14
2018-06-20T05:13:25.805Z,16.22
2018-06-20T05:14:53.951Z,16.28
2018-06-20T05:16:21.019Z,16.33
2018-06-20T05:17:47.523Z,16.39
2018-06-20T05:19:14.893Z,16.45
2018-06-20T05:20:42.344Z,16.53
2018-06-20T05:22:09.545Z,16.59
2018-06-20T05:23:37.063Z,16.65
2018-06-20T05:25:05.403Z,16.71
2018-06-20T05:26:31.409Z,16.76
2018-06-20T05:27:58.758Z,16.83
2018-06-20T05:29:26.198Z,16.91
2018-06-20T05:30:53.707Z,17.00
2018-06-20T05:32:22.243Z,17.10
2018-06-20T05:33:49.301Z,17.26
2018-06-20T05:35:16.808Z,17.50
2018-06-20T05:36:43.295Z,17.92
2018-06-20T05:38:10.855Z,18.52
2018-06-20T05:39:38.228Z,19.23
2018-06-20T05:41:06.077Z,19.87
2018-06-20T05:42:32.623Z,20.44
2018-06-20T05:44:01.382Z,20.90
2018-06-20T05:45:27.957Z,21.21
2018-06-20T05:46:56.846Z,21.42
2018-06-20T05:48:23.485Z,21.50
2018-06-20T05:49:51.115Z,21.56
2018-06-20T05:51:18.797Z,21.63
2018-06-20T05:52:46.395Z,21.74
2018-06-20T05:54:13.879Z,21.85
2018-06-20T05:55:41.380Z,21.92
2018-06-20T05:57:08.995Z,21.99
2018-06-20T05:58:37.554Z,22.01
2018-06-20T06:00:04.191Z,22.05
2018-06-20T06:01:31.977Z,22.10
2018-06-20T06:02:59.224Z,22.13
2018-06-20T06:04:27.819Z,22.15
2018-06-20T06:05:54.342Z,22.15
2018-06-20T06:07:23.004Z,22.10
2018-06-20T06:08:50.284Z,22.03
2018-06-20T06:10:18.132Z,21.95
2018-06-20T06:11:44.429Z,21.85
2018-06-20T06:13:12.066Z,21.78
2018-06-20T06:14:39.573Z,21.74
2018-06-20T06:16:07.205Z,21.71
2018-06-20T06:17:34.803Z,21.70
2018-06-20T06:19:03.264Z,21.69
2018-06-20T06:20:28.947Z,21.69
2018-06-20T06:21:56.620Z,21.71
2018-06-20T06:23:24.191Z,21.78
2018-06-20T06:24:52.542Z,21.89
2018-06-20T06:26:18.795Z,21.96
2018-06-20T06:27:47.426Z,22.06
2018-06-20T06:29:14.100Z,22.18
2018-06-20T06:30:41.799Z,22.29
2018-06-20T06:32:09.374Z,22.44
2018-06-20T06:33:38.266Z,22.57
2018-06-20T06:35:04.752Z,22.76
2018-06-20T06:36:32.231Z,23.00
2018-06-20T06:37:59.835Z,23.36
2018-06-20T06:39:27.529Z,23.72
2018-06-20T06:40:55.233Z,24.09
2018-06-20T06:42:22.948Z,24.45
2018-06-20T06:43:51.194Z,24.82
2018-06-20T06:45:17.928Z,25.18
2018-06-20T06:46:44.893Z,25.55
2018-06-20T06:48:13.447Z,25.85
2018-06-20T06:49:40.265Z,26.17
2018-06-20T06:51:08.017Z,26.42
2018-06-20T06:52:36.697Z,26.64
2018-06-20T06:54:03.052Z,26.80
2018-06-20T06:55:30.713Z,26.78
2018-06-20T06:56:58.279Z,26.53
2018-06-20T06:58:25.999Z,26.20
2018-06-20T06:59:54.490Z,25.82
2018-06-20T07:01:21.013Z,25.50
2018-06-20T07:02:48.578Z,25.14
2018-06-20T07:04:17.055Z,24.82
2018-06-20T07:05:43.580Z,24.50
2018-06-20T07:07:11.257Z,24.20
2018-06-20T07:08:38.842Z,23.97
2018-06-20T07:10:07.243Z,23.79
2018-06-20T07:11:34.744Z,23.61
2018-06-20T07:13:01.279Z,23.50
2018-06-20T07:14:28.810Z,23.42
2018-06-20T07:15:57.421Z,23.34
2018-06-20T07:17:24.973Z,23.22
2018-06-20T07:18:52.220Z,23.24
2018-06-20T07:20:18.595Z,23.38
2018-06-20T07:21:46.087Z,23.50
2018-06-20T07:23:13.426Z,23.56
2018-06-20T07:24:40.958Z,23.58
2018-06-20T07:26:09.618Z,23.60
2018-06-20T07:27:37.140Z,23.55
2018-06-20T07:29:03.635Z,23.42
2018-06-20T07:30:31.114Z,23.30
2018-06-20T07:31:58.896Z,23.24
2018-06-20T07:33:27.460Z,23.16
2018-06-20T07:34:54.287Z,23.08
2018-06-20T07:36:22.026Z,22.97
2018-06-20T07:37:48.415Z,22.87
2018-06-20T07:39:17.127Z,22.81
2018-06-20T07:40:43.668Z,22.78
2018-06-20T07:42:11.023Z,22.73
2018-06-20T07:43:41.870Z,22.61
2018-06-20T07:45:07.160Z,22.54
2018-06-20T07:46:33.521Z,22.50
2018-06-20T07:48:01.038Z,22.46
2018-06-20T07:49:28.359Z,22.42
2018-06-20T07:50:55.803Z,22.40
2018-06-20T07:52:24.331Z,22.37
2018-06-20T07:53:51.088Z,22.34
2018-06-20T07:55:18.594Z,22.31
2018-06-20T07:56:46.082Z,22.29
2018-06-20T07:58:13.225Z,22.29
2018-06-20T07:59:40.903Z,22.31
2018-06-20T08:01:08.463Z,22.31
2018-06-20T08:02:36.778Z,22.31
2018-06-20T08:04:02.930Z,22.32
2018-06-20T08:05:31.638Z,22.33
2018-06-20T08:06:57.343Z,22.32
2018-06-20T08:08:26.020Z,22.30
2018-06-20T08:09:52.292Z,22.27
2018-06-20T08:11:19.901Z,22.24
2018-06-20T08:12:47.551Z,22.25
2018-06-20T08:14:15.345Z,22.27
2018-06-20T08:15:42.347Z,22.29
2018-06-20T08:17:09.627Z,22.27
2018-06-20T08:18:36.981Z,22.27
2018-06-20T08:20:04.123Z,22.29
2018-06-20T08:21:32.921Z,22.30
2018-06-20T08:22:59.469Z,22.32
2018-06-20T08:24:27.974Z,22.33
2018-06-20T08:25:54.234Z,22.33
2018-06-20T08:27:21.345Z,22.33
2018-06-20T08:28:48.756Z,22.36
2018-06-20T08:30:17.272Z,22.40
2018-06-20T08:31:44.913Z,22.46
2018-06-20T08:33:12.127Z,22.53
2018-06-20T08:34:38.809Z,22.62
2018-06-20T08:36:07.315Z,22.71
2018-06-20T08:37:34.898Z,22.80
2018-06-20T08:39:00.864Z,22.84
2018-06-20T08:40:28.410Z,22.83
2018-06-20T08:41:55.930Z,22.83
2018-06-20T08:43:23.791Z,22.87
2018-06-20T08:44:51.217Z,22.91
2018-06-20T08:46:19.863Z,22.95
2018-06-20T08:47:46.434Z,22.97
2018-06-20T08:49:15.089Z,23.07
2018-06-20T08:50:42.434Z,23.09
2018-06-20T08:52:09.001Z,23.12
2018-06-20T08:53:36.598Z,23.18
2018-06-20T08:55:04.182Z,23.26
2018-06-20T08:56:31.852Z,23.37
2018-06-20T08:57:59.467Z,23.42
2018-06-20T08:59:27.030Z,23.44
2018-06-20T09:00:55.776Z,23.45
2018-06-20T09:02:23.409Z,23.41
2018-06-20T09:03:49.987Z,23.43
2018-06-20T09:05:17.382Z,23.49
2018-06-20T09:06:44.899Z,23.54
2018-06-20T09:08:12.433Z,23.63
2018-06-20T09:09:39.780Z,23.65
2018-06-20T09:11:08.442Z,23.68
2018-06-20T09:12:34.888Z,23.72
2018-06-20T09:14:02.467Z,23.76
2018-06-20T09:15:30.997Z,23.79
2018-06-20T09:16:57.234Z,23.81
2018-06-20T09:18:24.783Z,23.85
2018-06-20T09:19:52.518Z,23.88
2018-06-20T09:21:21.265Z,23.94
2018-06-20T09:22:47.781Z,23.96
2018-06-20T09:24:16.167Z,23.94
2018-06-20T09:25:42.223Z,23.95
2018-06-20T09:27:09.720Z,23.94
2018-06-20T09:28:38.364Z,23.92
2018-06-20T09:30:04.818Z,23.98
2018-06-20T09:31:33.175Z,24.05
2018-06-20T09:32:59.750Z,24.08
2018-06-20T09:34:28.145Z,24.14
2018-06-20T09:35:55.881Z,24.15
2018-06-20T09:37:23.176Z,24.17
2018-06-20T09:38:50.664Z,24.21
2018-06-20T09:40:18.171Z,24.25
2018-06-20T09:41:44.795Z,24.27
2018-06-20T09:43:12.465Z,24.31
2018-06-20T09:44:41.069Z,24.35
2018-06-20T09:46:07.358Z,24.36
2018-06-20T09:47:34.895Z,24.34
2018-06-20T09:49:02.315Z,24.33
2018-06-20T09:50:30.950Z,24.30
2018-06-20T09:51:57.510Z,24.31
2018-06-20T09:53:24.823Z,24.34
2018-06-20T09:54:52.590Z,24.40
2018-06-20T09:56:20.041Z,24.44
2018-06-20T09:57:47.562Z,24.45
2018-06-20T09:59:15.113Z,24.43
2018-06-20T10:00:43.671Z,24.40
2018-06-20T10:02:10.605Z,24.37
2018-06-20T10:03:36.994Z,24.35
2018-06-20T10:05:05.486Z,24.37
2018-06-20T10:06:31.948Z,24.40
2018-06-20T10:08:00.276Z,24.41
2018-06-20T10:09:26.818Z,24.41
2018-06-20T10:10:54.518Z,24.44
2018-06-20T10:12:23.017Z,24.52
2018-06-20T10:13:50.476Z,24.55
2018-06-20T10:15:18.172Z,24.60
2018-06-20T10:16:44.755Z,24.76
2018-06-20T10:18:12.399Z,24.87
2018-06-20T10:19:40.002Z,24.92
2018-06-20T10:21:07.746Z,24.93
2018-06-20T10:22:36.258Z,24.97
2018-06-20T10:24:02.747Z,25.12
2018-06-20T10:25:30.579Z,25.26
2018-06-20T10:26:59.274Z,25.33
2018-06-20T10:28:25.692Z,25.30
2018-06-20T10:29:53.406Z,25.19
2018-06-20T10:31:21.882Z,25.10
2018-06-20T10:32:48.201Z,25.01
2018-06-20T10:34:15.994Z,24.93
2018-06-20T10:35:43.553Z,24.84
2018-06-20T10:37:11.167Z,24.75
2018-06-20T10:38:39.787Z,24.67
2018-06-20T10:40:06.491Z,24.61
2018-06-20T10:41:34.962Z,24.62
2018-06-20T10:43:07.504Z,24.63
2018-06-20T10:44:30.112Z,24.65
2018-06-20T10:45:56.332Z,24.68
2018-06-20T10:47:24.044Z,24.74
2018-06-20T10:48:52.619Z,24.79
2018-06-20T10:50:19.238Z,24.83
2018-06-20T10:51:47.922Z,24.84
2018-06-20T10:53:14.561Z,24.84
2018-06-20T10:54:43.017Z,24.88
2018-06-20T10:56:10.513Z,24.91
2018-06-20T10:57:37.160Z,24.92
2018-06-20T10:59:05.584Z,24.92
2018-06-20T11:00:32.251Z,24.89
2018-06-20T11:01:59.798Z,24.87
2018-06-20T11:03:27.796Z,24.86
2018-06-20T11:04:54.189Z,24.86
2018-06-20T11:06:22.783Z,24.89
2018-06-20T11:07:50.339Z,24.89
2018-06-20T11:09:16.836Z,24.90
2018-06-20T11:10:44.420Z,24.91
2018-06-20T11:12:11.862Z,24.90
2018-06-20T11:13:39.516Z,24.92
2018-06-20T11:15:06.945Z,24.93
2018-06-20T11:16:35.727Z,24.94
2018-06-20T11:18:01.498Z,24.96
2018-06-20T11:19:29.867Z,25.02
2018-06-20T11:20:56.311Z,25.08
2018-06-20T11:22:24.150Z,25.12
2018-06-20T11:23:51.627Z,25.16
2018-06-20T11:25:19.157Z,25.20
2018-06-20T11:26:47.435Z,25.39
2018-06-20T11:28:15.081Z,25.56
2018-06-20T11:29:41.673Z,25.63
2018-06-20T11:31:09.193Z,25.66
2018-06-20T11:32:37.762Z,25.65
2018-06-20T11:34:05.177Z,25.61
2018-06-20T11:35:32.212Z,25.52
2018-06-20T11:36:58.868Z,25.44
2018-06-20T11:38:27.074Z,25.33
2018-06-20T11:39:54.114Z,25.26
2018-06-20T11:41:20.753Z,25.23
2018-06-20T11:42:48.398Z,25.21
2018-06-20T11:44:16.098Z,25.19
2018-06-20T11:45:43.686Z,25.16
2018-06-20T11:47:11.294Z,25.15
2018-06-20T11:48:39.817Z,25.15
2018-06-20T11:50:07.403Z,25.12
2018-06-20T11:51:33.703Z,25.09
2018-06-20T11:53:02.434Z,25.08
2018-06-20T11:54:29.987Z,25.22
2018-06-20T11:55:56.678Z,25.39
2018-06-20T11:57:23.868Z,25.43
2018-06-20T11:58:52.492Z,25.45
2018-06-20T12:00:20.028Z,25.55
2018-06-20T12:03:14.130Z,25.95
2018-06-20T12:04:41.679Z,26.19
2018-06-20T12:06:10.173Z,26.47
2018-06-20T12:07:36.524Z,26.73
2018-06-20T12:09:04.097Z,26.82
2018-06-20T12:10:32.758Z,26.99
2018-06-20T12:11:59.001Z,27.20
2018-06-20T12:13:27.386Z,27.42
2018-06-20T12:14:54.972Z,27.61
2018-06-20T12:16:22.462Z,27.76
2018-06-20T12:17:49.005Z,27.89
2018-06-20T12:19:16.655Z,27.90
2018-06-20T12:20:44.103Z,27.96
2018-06-20T12:22:12.845Z,28.02
2018-06-20T12:23:40.345Z,28.01
2018-06-20T12:25:06.903Z,28.03
2018-06-20T12:26:35.684Z,27.99
2018-06-20T12:28:01.897Z,28.01
2018-06-20T12:29:30.190Z,28.01
2018-06-20T12:30:56.795Z,28.06
2018-06-20T12:32:25.269Z,28.09
2018-06-20T12:33:51.969Z,28.11
2018-06-20T12:35:19.355Z,28.19
2018-06-20T12:36:47.862Z,28.21
2018-06-20T12:38:14.564Z,28.13
2018-06-20T12:39:43.092Z,27.92
2018-06-20T12:41:09.635Z,27.80
2018-06-20T12:42:37.266Z,27.75
2018-06-20T12:44:03.714Z,27.67
2018-06-20T12:45:31.409Z,27.55
2018-06-20T12:47:02.056Z,27.46
2018-06-20T12:48:26.502Z,27.36
2018-06-20T12:49:54.721Z,27.36
2018-06-20T12:51:22.591Z,27.42
2018-06-20T12:52:49.294Z,27.31
2018-06-20T12:54:17.978Z,27.19
2018-06-20T12:55:44.653Z,27.18
2018-06-20T12:57:15.190Z,27.23
2018-06-20T12:58:40.689Z,27.23
2018-06-20T13:00:08.394Z,27.19
2018-06-20T13:01:34.896Z,27.09
2018-06-20T13:03:02.566Z,27.03
2018-06-20T13:04:30.238Z,27.01
2018-06-20T13:05:57.772Z,26.98
2018-06-20T13:07:25.354Z,26.92
2018-06-20T13:08:53.946Z,26.80
2018-06-20T13:10:21.747Z,26.71
2018-06-20T13:11:48.267Z,26.63
2018-06-20T13:13:16.867Z,26.61
2018-06-20T13:14:43.492Z,26.63
2018-06-20T13:16:12.122Z,26.66
2018-06-20T13:17:39.438Z,26.73
2018-06-20T13:19:05.966Z,26.77
2018-06-20T13:20:34.607Z,26.75
2018-06-20T13:22:02.343Z,26.76
2018-06-20T13:23:28.953Z,26.80
2018-06-20T13:24:57.635Z,26.81
2018-06-20T13:26:24.209Z,26.73
2018-06-20T13:27:51.920Z,26.66
2018-06-20T13:29:19.525Z,26.63
2018-06-20T13:30:47.365Z,26.59
2018-06-20T13:32:15.995Z,26.55
2018-06-20T13:33:42.251Z,26.55
2018-06-20T13:35:10.067Z,26.53
2018-06-20T13:36:37.758Z,26.53
2018-06-20T13:38:06.203Z,26.48
2018-06-20T13:39:32.667Z,26.44
2018-06-20T13:41:01.153Z,26.39
2018-06-20T13:42:28.544Z,26.38
2018-06-20T13:43:56.141Z,26.41
2018-06-20T13:45:22.722Z,26.46
2018-06-20T13:46:50.470Z,26.55
2018-06-20T13:48:17.955Z,26.58
2018-06-20T13:49:45.494Z,26.54
2018-06-20T13:51:13.165Z,26.53
2018-06-20T13:52:40.419Z,26.57
2018-06-20T13:54:08.816Z,26.65
2018-06-20T13:55:36.378Z,26.75
2018-06-20T13:57:03.928Z,26.81
2018-06-20T13:58:30.286Z,26.84
2018-06-20T13:59:58.063Z,26.88
2018-06-20T14:01:25.736Z,26.89
2018-06-20T14:02:53.433Z,26.89
2018-06-20T14:04:20.862Z,26.87
2018-06-20T14:05:47.514Z,26.87
2018-06-20T14:07:16.301Z,26.86
2018-06-20T14:08:42.927Z,26.84
2018-06-20T14:10:11.550Z,26.79
2018-06-20T14:11:39.201Z,26.70
2018-06-20T14:13:05.541Z,26.63
2018-06-20T14:14:33.156Z,26.62
2018-06-20T14:16:00.717Z,26.63
2018-06-20T14:17:28.035Z,26.65
2018-06-20T14:18:56.557Z,26.67
2018-06-20T14:20:23.234Z,26.71
2018-06-20T14:21:52.094Z,26.76
2018-06-20T14:23:18.981Z,26.80
2018-06-20T14:24:46.381Z,26.86
2018-06-20T14:26:14.923Z,26.91
2018-06-20T14:27:42.482Z,26.93
2018-06-20T14:29:08.955Z,26.95
2018-06-20T14:30:37.492Z,26.95
2018-06-20T14:32:04.980Z,26.93
2018-06-20T14:33:32.595Z,26.95
2018-06-20T14:34:59.217Z,26.97
2018-06-20T14:36:26.678Z,26.98
2018-06-20T14:37:55.385Z,26.94
2018-06-20T14:39:23.203Z,26.86
2018-06-20T14:40:49.434Z,26.74
2018-06-20T14:42:17.018Z,26.67
2018-06-20T14:43:44.730Z,26.64
2018-06-20T14:45:13.241Z,26.60
2018-06-20T14:46:40.822Z,26.53
2018-06-20T14:48:08.438Z,26.44
2018-06-20T14:49:36.152Z,26.38
2018-06-20T14:51:05.585Z,26.33
2018-06-20T14:52:30.928Z,26.30
2018-06-20T14:53:58.601Z,26.27
2018-06-20T14:55:26.200Z,26.25
2018-06-20T14:56:52.829Z,26.25
2018-06-20T14:58:20.632Z,26.26
2018-06-20T14:59:48.197Z,26.26
2018-06-20T15:01:15.821Z,26.26
2018-06-20T15:02:43.405Z,26.22
2018-06-20T15:04:12.017Z,26.16
2018-06-20T15:05:38.662Z,26.11
2018-06-20T15:07:06.256Z,26.07
2018-06-20T15:08:33.876Z,26.05
2018-06-20T15:11:28.972Z,26.04
2018-06-20T15:12:56.599Z,26.06
2018-06-20T15:14:24.270Z,26.08
2018-06-20T15:15:53.014Z,26.08
2018-06-20T15:17:20.623Z,26.05
2018-06-20T15:18:48.133Z,26.04
2018-06-20T15:20:14.744Z,26.03
2018-06-20T15:21:42.053Z,26.04
2018-06-20T15:23:10.696Z,26.06
2018-06-20T15:24:37.315Z,26.08
2018-06-20T15:26:04.983Z,26.10
2018-06-20T15:27:33.514Z,26.10
2018-06-20T15:29:01.279Z,26.08
2018-06-20T15:30:27.895Z,26.07
2018-06-20T15:31:55.588Z,26.06
2018-06-20T15:33:23.183Z,26.05
2018-06-20T15:34:50.867Z,26.03
2018-06-20T15:36:18.564Z,26.04
2018-06-20T15:37:46.269Z,26.03
2018-06-20T15:39:14.694Z,26.04
2018-06-20T15:40:42.166Z,26.06
2018-06-20T15:42:08.775Z,26.07
2018-06-20T15:43:36.346Z,26.06
2018-06-20T15:45:04.141Z,26.04
2018-06-20T15:46:32.825Z,26.03
2018-06-20T15:47:59.293Z,26.03
2018-06-20T15:49:26.917Z,26.03
2018-06-20T15:50:55.426Z,26.00
2018-06-20T15:52:21.948Z,25.94
2018-06-20T15:53:49.625Z,25.89
2018-06-20T15:55:17.147Z,25.85
2018-06-20T15:56:44.707Z,25.84
2018-06-20T15:58:12.153Z,25.85
2018-06-20T15:59:39.653Z,25.86
2018-06-20T16:01:07.400Z,25.85
2018-06-20T16:02:35.060Z,25.85
2018-06-20T16:04:02.369Z,25.84
2018-06-20T16:05:30.992Z,25.84
2018-06-20T16:06:58.512Z,25.81
2018-06-20T16:08:25.552Z,25.82
2018-06-20T16:09:52.739Z,25.83
2018-06-20T16:11:19.361Z,25.84
2018-06-20T16:12:47.013Z,25.86
2018-06-20T16:14:14.346Z,25.86
2018-06-20T16:15:43.345Z,25.86
2018-06-20T16:17:10.048Z,25.87
2018-06-20T16:18:38.666Z,25.88
2018-06-20T16:20:06.425Z,25.90
2018-06-20T16:21:33.096Z,25.92
2018-06-20T16:23:00.781Z,25.92
2018-06-20T16:24:28.477Z,25.91
2018-06-20T16:25:56.009Z,25.92
2018-06-20T16:27:23.789Z,25.92
2018-06-20T16:28:51.185Z,25.92
2018-06-20T16:30:19.931Z,25.92
2018-06-20T16:31:47.316Z,25.92
2018-06-20T16:33:13.743Z,25.93
2018-06-20T16:34:41.523Z,25.92
2018-06-20T16:36:09.151Z,25.91
2018-06-20T16:37:36.915Z,25.91
2018-06-20T16:39:04.476Z,25.89
2018-06-20T16:40:32.164Z,25.86
2018-06-20T16:41:59.920Z,25.84
2018-06-20T16:43:27.477Z,25.83
2018-06-20T16:44:54.905Z,25.82
2018-06-20T16:46:22.545Z,25.82
2018-06-20T16:47:49.979Z,25.81
2018-06-20T16:49:17.601Z,25.79
2018-06-20T16:50:46.057Z,25.78
2018-06-20T16:52:13.634Z,25.77
2018-06-20T16:53:40.280Z,25.75
2018-06-20T16:55:08.991Z,25.73
2018-06-20T16:56:35.480Z,25.72
2018-06-20T16:58:03.985Z,25.71
2018-06-20T16:59:30.646Z,25.71
2018-06-20T17:00:58.270Z,25.71
2018-06-20T17:02:25.830Z,25.70
2018-06-20T17:03:54.180Z,25.70
2018-06-20T17:05:20.832Z,25.70
2018-06-20T17:06:49.065Z,25.71
2018-06-20T17:08:16.386Z,25.71
2018-06-20T17:09:42.640Z,25.72
2018-06-20T17:11:10.323Z,25.72
2018-06-20T17:12:38.067Z,25.71
2018-06-20T17:14:05.641Z,25.70
2018-06-20T17:15:34.337Z,25.68
2018-06-20T17:17:00.803Z,25.66
2018-06-20T17:18:29.294Z,25.65
2018-06-20T17:19:55.922Z,25.62
2018-06-20T17:21:23.460Z,25.61
2018-06-20T17:22:50.320Z,25.60
2018-06-20T17:24:17.851Z,25.59
2018-06-20T17:25:46.408Z,25.57
2018-06-20T17:27:12.835Z,25.55
2018-06-20T17:28:40.417Z,25.54
2018-06-20T17:30:09.057Z,25.52
2018-06-20T17:31:36.328Z,25.52
2018-06-20T17:33:03.007Z,25.51
2018-06-20T17:34:31.271Z,25.51
2018-06-20T17:35:58.883Z,25.49
2018-06-20T17:37:25.473Z,25.46
2018-06-20T17:38:53.984Z,25.44
2018-06-20T17:40:20.322Z,25.41
2018-06-20T17:41:48.079Z,25.40
2018-06-20T17:43:16.498Z,25.37
2018-06-20T17:44:43.770Z,25.34
2018-06-20T17:46:11.289Z,25.32
2018-06-20T17:47:37.970Z,25.30
2018-06-20T17:49:05.634Z,25.28
2018-06-20T17:50:34.424Z,25.26
2018-06-20T17:52:01.981Z,25.25
2018-06-20T17:53:28.836Z,25.22
2018-06-20T17:54:57.382Z,25.19
2018-06-20T17:56:23.965Z,25.18
2018-06-20T17:57:52.632Z,25.16
2018-06-20T17:59:18.977Z,25.15
2018-06-20T18:00:47.399Z,25.14
2018-06-20T18:02:14.808Z,25.13
2018-06-20T18:03:40.761Z,25.12
2018-06-20T18:05:08.402Z,25.10
2018-06-20T18:06:36.001Z,25.09
2018-06-20T18:08:04.931Z,25.07
2018-06-20T18:09:32.414Z,25.05
2018-06-20T18:10:58.571Z,25.04
2018-06-20T18:12:26.657Z,25.02
2018-06-20T18:13:53.298Z,25.01
2018-06-20T18:15:21.982Z,24.99
2018-06-20T18:16:48.585Z,24.96
2018-06-20T18:18:17.003Z,24.94
2018-06-20T18:19:44.717Z,24.90
2018-06-20T18:21:11.236Z,24.88
2018-06-20T18:22:39.865Z,24.85
2018-06-20T18:24:07.405Z,24.83
2018-06-20T18:25:34.042Z,24.81
2018-06-20T18:27:02.686Z,24.78
2018-06-20T18:28:30.192Z,24.76
2018-06-20T18:30:02.541Z,24.74
2018-06-20T18:31:24.022Z,24.72
2018-06-20T18:32:51.718Z,24.69
2018-06-20T18:34:19.162Z,24.68
2018-06-20T18:35:46.818Z,24.65
2018-06-20T18:37:14.362Z,24.62
2018-06-20T18:38:42.915Z,24.60
2018-06-20T18:40:09.296Z,24.58
2018-06-20T18:41:37.960Z,24.55
2018-06-20T18:43:04.491Z,24.53
2018-06-20T18:44:32.246Z,24.50
2018-06-20T18:46:00.863Z,24.48
2018-06-20T18:47:27.286Z,24.45
2018-06-20T18:48:55.874Z,24.42